createdAt,value
2022-10-18T00:03:02.359Z,101669.13
2022-10-18T00:06:09.025Z,101663.50
2022-10-18T00:09:13.984Z,101669.00
2022-10-18T00:12:16.898Z,101662.91
2022-10-18T00:15:21.086Z,101666.88
2022-10-18T00:18:24.147Z,101667.47
2022-10-18T00:21:27.902Z,101676.22
2022-10-18T00:24:32.161Z,101673.19
2022-10-18T00:27:35.844Z,101675.44
2022-10-18T00:30:39.135Z,101674.59
2022-10-18T00:33:43.286Z,101686.88
2022-10-18T00:36:46.555Z,101683.53
2022-10-18T00:39:53.777Z,101689.63
2022-10-18T00:42:56.688Z,101682.72
2022-10-18T00:45:59.775Z,101677.84
2022-10-18T00:49:12.869Z,101671.63
2022-10-18T00:52:19.598Z,101664.47
2022-10-18T00:55:24.405Z,101673.41
2022-10-18T00:58:27.685Z,101660.69
2022-10-18T01:01:31.074Z,101663.81
2022-10-18T01:04:34.652Z,101658.66
2022-10-18T01:08:17.139Z,101638.00
2022-10-18T01:11:48.434Z,101630.47
2022-10-18T01:15:00.445Z,101639.53
2022-10-18T01:18:16.890Z,101635.66
2022-10-18T01:21:39.483Z,101643.06
2022-10-18T01:28:39.015Z,101666.28
2022-10-18T01:31:47.995Z,101677.38
2022-10-18T01:34:53.991Z,101687.06
2022-10-18T01:38:01.262Z,101684.34
2022-10-18T01:41:06.394Z,101688.78
2022-10-18T01:44:15.660Z,101683.84
2022-10-18T01:47:21.340Z,101688.28
2022-10-18T01:50:30.872Z,101688.84
2022-10-18T01:53:35.946Z,101701.53
2022-10-18T01:56:47.194Z,101701.44
2022-10-18T01:59:57.520Z,101705.03
2022-10-18T02:03:08.233Z,101694.38
2022-10-18T02:06:21.332Z,101678.56
2022-10-18T02:09:38.563Z,101683.56
2022-10-18T02:12:45.308Z,101676.63
2022-10-18T02:15:52.483Z,101684.66
2022-10-18T02:19:02.210Z,101688.28
2022-10-18T02:22:06.940Z,101683.00
2022-10-18T02:25:18.274Z,101702.50
2022-10-18T02:28:21.749Z,101693.19
2022-10-18T02:31:31.729Z,101694.59
2022-10-18T02:34:41.734Z,101690.31
2022-10-18T02:37:46.018Z,101694.88
2022-10-18T02:40:49.094Z,101696.69
2022-10-18T02:43:52.006Z,101696.06
2022-10-18T02:46:55.063Z,101705.41
2022-10-18T02:49:59.290Z,101706.59
2022-10-18T02:53:02.237Z,101698.56
2022-10-18T02:56:06.311Z,101706.00
2022-10-18T02:59:09.392Z,101708.78
2022-10-18T03:02:12.567Z,101704.47
2022-10-18T03:05:17.179Z,101695.63
2022-10-18T03:08:22.643Z,101698.94
2022-10-18T03:11:25.687Z,101694.28
2022-10-18T03:14:28.615Z,101703.28
2022-10-18T03:17:31.772Z,101703.97
2022-10-18T03:20:36.705Z,101726.22
2022-10-18T03:23:41.685Z,101734.13
2022-10-18T03:26:44.607Z,101742.03
2022-10-18T03:29:47.488Z,101725.75
2022-10-18T03:32:50.407Z,101712.88
2022-10-18T03:35:54.637Z,101703.31
2022-10-18T03:38:57.541Z,101699.38
2022-10-18T03:42:00.458Z,101676.06
2022-10-18T03:45:03.409Z,101676.91
2022-10-18T03:48:07.247Z,101678.78
2022-10-18T03:51:11.541Z,101688.97
2022-10-18T03:54:14.440Z,101686.72
2022-10-18T03:57:17.500Z,101691.41
2022-10-18T04:00:20.585Z,101690.44
2022-10-18T04:03:24.289Z,101690.56
2022-10-18T04:06:28.519Z,101675.81
2022-10-18T04:09:31.748Z,101682.28
2022-10-18T04:12:35.076Z,101681.34
2022-10-18T04:15:38.147Z,101689.47
2022-10-18T04:18:41.080Z,101679.31
2022-10-18T04:21:45.346Z,101684.00
2022-10-18T04:24:48.283Z,101677.03
2022-10-18T04:27:51.314Z,101670.94
2022-10-18T04:30:54.802Z,101664.28
2022-10-18T04:33:57.750Z,101678.25
2022-10-18T04:37:01.984Z,101683.25
2022-10-18T04:40:05.958Z,101688.66
2022-10-18T04:43:08.869Z,101679.19
2022-10-18T04:46:11.775Z,101684.72
2022-10-18T04:49:15.202Z,101682.44
2022-10-18T04:52:20.163Z,101676.84
2022-10-18T04:55:23.065Z,101675.16
2022-10-18T04:58:26.059Z,101675.41
2022-10-18T05:01:29.149Z,101671.31
2022-10-18T05:04:32.315Z,101669.66
2022-10-18T05:07:36.583Z,101680.91
2022-10-18T05:10:39.566Z,101672.28
2022-10-18T05:13:44.128Z,101661.78
2022-10-18T05:16:48.982Z,101658.44
2022-10-18T05:19:52.014Z,101661.78
2022-10-18T05:22:56.278Z,101671.59
2022-10-18T05:26:04.099Z,101663.69
2022-10-18T05:29:07.100Z,101671.59
2022-10-18T05:32:10.476Z,101662.03
2022-10-18T05:35:13.411Z,101664.19
2022-10-18T05:38:18.213Z,101666.81
2022-10-18T05:41:21.180Z,101662.38
2022-10-18T05:44:24.490Z,101655.09
2022-10-18T05:47:27.458Z,101658.09
2022-10-18T05:50:30.523Z,101664.88
2022-10-18T05:53:37.580Z,101654.59
2022-10-18T05:56:41.536Z,101670.84
2022-10-18T05:59:45.292Z,101671.59
2022-10-18T06:02:48.284Z,101677.31
2022-10-18T06:05:51.214Z,101681.63
2022-10-18T06:08:55.530Z,101672.28
2022-10-18T06:11:58.578Z,101675.63
2022-10-18T06:15:01.537Z,101673.00
2022-10-18T06:18:04.615Z,101658.53
2022-10-18T06:21:08.481Z,101659.00
2022-10-18T06:24:13.160Z,101653.66
2022-10-18T06:27:16.067Z,101657.22
2022-10-18T06:30:19.007Z,101667.50
2022-10-18T06:33:22.149Z,101654.72
2022-10-18T06:36:25.527Z,101646.97
2022-10-18T06:39:30.742Z,101658.66
2022-10-18T06:42:33.937Z,101647.94
2022-10-18T06:45:37.182Z,101646.34
2022-10-18T06:48:40.553Z,101647.09
2022-10-18T06:51:44.461Z,101654.59
2022-10-18T06:54:48.849Z,101659.84
2022-10-18T06:57:51.792Z,101665.50
2022-10-18T07:00:54.761Z,101660.09
2022-10-18T07:03:58.132Z,101656.31
2022-10-18T07:07:01.111Z,101659.63
2022-10-18T07:10:07.141Z,101670.38
2022-10-18T07:16:35.067Z,101676.22
2022-10-18T07:19:38.023Z,101685.69
2022-10-18T07:22:40.935Z,101692.34
2022-10-18T07:25:45.231Z,101701.06
2022-10-18T07:28:50.782Z,101700.16
2022-10-18T07:31:53.905Z,101701.47
2022-10-18T07:34:56.878Z,101706.47
2022-10-18T07:37:59.869Z,101717.47
2022-10-18T07:41:07.235Z,101719.97
2022-10-18T07:44:10.958Z,101715.19
2022-10-18T07:47:15.090Z,101718.66
2022-10-18T07:50:18.111Z,101726.19
2022-10-18T07:53:21.102Z,101724.16
2022-10-18T07:56:25.341Z,101722.59
2022-10-18T07:59:28.294Z,101720.69
2022-10-18T08:02:31.237Z,101711.25
2022-10-18T08:05:34.286Z,101711.00
2022-10-18T08:08:38.826Z,101716.13
2022-10-18T08:11:43.082Z,101713.50
2022-10-18T08:14:47.004Z,101712.47
2022-10-18T08:17:49.924Z,101709.91
2022-10-18T08:20:52.900Z,101710.06
2022-10-18T08:23:55.978Z,101711.59
2022-10-18T08:27:00.225Z,101701.47
2022-10-18T08:30:03.207Z,101700.50
2022-10-18T08:33:07.031Z,101695.72
2022-10-18T08:36:13.623Z,101699.88
2022-10-18T08:39:16.799Z,101704.31
2022-10-18T08:42:39.990Z,101713.03
2022-10-18T08:45:44.230Z,101714.00
2022-10-18T08:48:51.203Z,101711.50
2022-10-18T08:51:55.773Z,101705.41
2022-10-18T08:55:04.744Z,101706.34
2022-10-18T08:58:18.337Z,101708.03
2022-10-18T09:01:35.872Z,101702.28
2022-10-18T09:04:50.951Z,101703.22
2022-10-18T09:08:15.538Z,101701.81
2022-10-18T09:11:44.737Z,101710.75
2022-10-18T09:15:15.429Z,101717.66
2022-10-18T09:18:43.733Z,101717.44
2022-10-18T09:21:53.363Z,101718.63
2022-10-18T09:25:08.860Z,101716.63
2022-10-18T09:28:20.731Z,101717.66
2022-10-18T09:31:37.266Z,101717.66
2022-10-18T09:34:50.668Z,101711.69
2022-10-18T09:37:59.408Z,101708.38
2022-10-18T09:41:11.198Z,101712.31
2022-10-18T09:44:20.516Z,101713.97
2022-10-18T09:50:40.552Z,101703.47
2022-10-18T09:54:00.571Z,101705.97
2022-10-18T09:57:06.834Z,101706.09
2022-10-18T10:00:22.445Z,101698.34
2022-10-18T10:03:27.807Z,101705.97
2022-10-18T10:06:34.515Z,101712.88
2022-10-18T10:09:42.821Z,101715.78
2022-10-18T10:12:46.739Z,101709.78
2022-10-18T10:15:56.480Z,101703.81
2022-10-18T10:19:01.051Z,101700.22
2022-10-18T10:22:07.772Z,101700.72
2022-10-18T10:25:23.588Z,101695.47
2022-10-18T10:28:29.966Z,101697.25
2022-10-18T10:31:34.377Z,101695.47
2022-10-18T10:34:41.054Z,101696.66
2022-10-18T10:37:52.641Z,101688.19
2022-10-18T10:40:56.369Z,101686.03
2022-10-18T10:43:59.368Z,101682.66
2022-10-18T10:47:02.760Z,101678.72
2022-10-18T10:50:13.813Z,101675.88
2022-10-18T10:53:50.916Z,101675.63
2022-10-18T10:56:59.982Z,101668.22
2022-10-18T11:00:03.415Z,101664.19
2022-10-18T11:03:27.818Z,101651.75
2022-10-18T11:06:49.808Z,101649.81
2022-10-18T11:10:01.069Z,101660.34
2022-10-18T11:13:18.736Z,101651.53
2022-10-18T11:16:33.451Z,101656.78
2022-10-18T11:19:45.702Z,101651.53
2022-10-18T11:23:01.213Z,101646.97
2022-10-18T11:26:29.337Z,101648.88
2022-10-18T11:29:50.316Z,101656.50
2022-10-18T11:33:04.970Z,101650.06
2022-10-18T11:36:14.277Z,101652.84
2022-10-18T11:39:27.427Z,101655.94
2022-10-18T11:42:40.255Z,101650.44
2022-10-18T11:45:54.319Z,101650.31
2022-10-18T11:49:19.989Z,101650.66
2022-10-18T11:52:35.246Z,101645.78
2022-10-18T11:55:58.450Z,101649.25
2022-10-18T11:59:26.430Z,101633.09
2022-10-18T12:02:57.759Z,101626.19
2022-10-18T12:06:06.277Z,101602.91
2022-10-18T12:09:20.819Z,101624.28
2022-10-18T12:12:29.371Z,101626.44
2022-10-18T12:15:37.665Z,101632.88
2022-10-18T12:22:11.686Z,101619.25
2022-10-18T12:25:16.750Z,101611.84
2022-10-18T12:28:31.556Z,101622.13
2022-10-18T12:31:41.125Z,101611.38
2022-10-18T12:34:48.268Z,101610.41
2022-10-18T12:38:07.153Z,101611.25
2022-10-18T12:41:21.881Z,101609.22
2022-10-18T12:44:32.540Z,101601.81
2022-10-18T12:47:36.933Z,101595.34
2022-10-18T12:50:43.281Z,101595.81
2022-10-18T12:53:48.779Z,101594.59
2022-10-18T12:56:51.931Z,101590.31
2022-10-18T12:59:56.173Z,101595.22
2022-10-18T13:04:02.381Z,101591.59
2022-10-18T13:07:23.495Z,101593.03
2022-10-18T13:10:36.964Z,101588.88
2022-10-18T13:13:53.181Z,101600.13
2022-10-18T13:17:04.764Z,101595.94
2022-10-18T13:20:27.371Z,101603.94
2022-10-18T13:23:43.532Z,101606.44
2022-10-18T13:27:31.399Z,101604.91
2022-10-18T13:30:52.468Z,101612.56
2022-10-18T13:33:56.936Z,101606.22
2022-10-18T13:37:02.665Z,101609.44
2022-10-18T13:40:25.838Z,101599.75
2022-10-18T13:44:25.018Z,101608.81
2022-10-18T13:47:37.236Z,101610.63
2022-10-18T13:50:44.131Z,101613.09
2022-10-18T13:53:57.304Z,101612.50
2022-10-18T13:57:18.138Z,101622.84
2022-10-18T14:00:49.122Z,101632.53
2022-10-18T14:04:35.430Z,101648.94
2022-10-18T14:07:41.831Z,101677.84
2022-10-18T14:11:02.488Z,101698.34
2022-10-18T14:14:15.819Z,101699.16
2022-10-18T14:17:31.276Z,101699.03
2022-10-18T14:20:49.433Z,101697.69
2022-10-18T14:24:00.171Z,101703.78
2022-10-18T14:27:18.662Z,101713.50
2022-10-18T14:30:24.609Z,101728.94
2022-10-18T14:33:36.490Z,101732.28
2022-10-18T14:36:42.934Z,101736.81
2022-10-18T14:39:47.935Z,101727.63
2022-10-18T14:42:50.864Z,101734.19
2022-10-18T14:46:09.555Z,101742.09
2022-10-18T14:49:14.255Z,101746.38
2022-10-18T14:52:21.981Z,101749.34
2022-10-18T14:55:28.889Z,101751.13
2022-10-18T14:58:33.019Z,101762.59
2022-10-18T15:01:36.462Z,101779.53
2022-10-18T15:04:39.593Z,101781.56
2022-10-18T15:07:42.807Z,101789.06
2022-10-18T15:10:47.366Z,101780.97
2022-10-18T15:13:54.558Z,101777.97
2022-10-18T15:17:01.477Z,101758.34
2022-10-18T15:20:22.568Z,101754.66
2022-10-18T15:23:31.147Z,101744.16
2022-10-18T15:26:35.400Z,101752.38
2022-10-18T15:29:38.750Z,101753.19
2022-10-18T15:32:51.260Z,101753.03
2022-10-18T15:35:55.225Z,101743.81
2022-10-18T15:39:13.143Z,101744.50
2022-10-18T15:42:39.167Z,101728.97
2022-10-18T15:49:38.890Z,101720.38
2022-10-18T15:52:43.031Z,101725.59
2022-10-18T15:55:49.528Z,101725.28
2022-10-18T15:58:55.282Z,101721.31
2022-10-18T16:01:58.306Z,101715.91
2022-10-18T16:05:02.511Z,101710.38
2022-10-18T16:08:06.037Z,101705.47
2022-10-18T16:11:10.293Z,101708.41
2022-10-18T16:14:14.627Z,101708.41
2022-10-18T16:17:17.563Z,101717.25
2022-10-18T16:20:24.435Z,101729.56
2022-10-18T16:23:29.501Z,101720.00
2022-10-18T16:26:32.696Z,101718.56
2022-10-18T16:29:36.988Z,101727.78
2022-10-18T16:32:40.778Z,101737.69
2022-10-18T16:35:43.680Z,101737.03
2022-10-18T16:38:47.754Z,101738.72
2022-10-18T16:41:51.282Z,101747.75
2022-10-18T16:44:55.523Z,101748.16
2022-10-18T16:47:58.443Z,101759.59
2022-10-18T16:51:01.663Z,101768.06
2022-10-18T16:54:05.428Z,101767.25
2022-10-18T16:57:08.475Z,101776.25
2022-10-18T17:00:20.740Z,101769.41
2022-10-18T17:03:23.705Z,101772.41
2022-10-18T17:06:29.600Z,101757.13
2022-10-18T17:09:34.791Z,101759.91
2022-10-18T17:12:37.737Z,101761.31
2022-10-18T17:15:42.694Z,101757.00
2022-10-18T17:18:45.730Z,101748.59
2022-10-18T17:21:48.653Z,101747.00
2022-10-18T17:24:51.671Z,101748.13
2022-10-18T17:27:54.621Z,101730.66
2022-10-18T17:30:59.191Z,101728.34
2022-10-18T17:34:02.752Z,101733.81
2022-10-18T17:37:06.275Z,101740.06
2022-10-18T17:40:10.729Z,101736.25
2022-10-18T17:43:14.086Z,101740.00
2022-10-18T17:46:19.454Z,101735.88
2022-10-18T17:49:22.656Z,101744.88
2022-10-18T17:52:25.810Z,101741.72
2022-10-18T17:55:30.034Z,101747.38
2022-10-18T17:58:33.643Z,101748.59
2022-10-18T18:01:37.968Z,101747.31
2022-10-18T18:04:40.931Z,101739.75
2022-10-18T18:07:44.131Z,101745.34
2022-10-18T18:13:56.411Z,101749.56
2022-10-18T18:17:01.273Z,101750.56
2022-10-18T18:20:05.640Z,101750.88
2022-10-18T18:23:08.595Z,101752.69
2022-10-18T18:26:11.864Z,101752.91
2022-10-18T18:29:15.151Z,101751.28
2022-10-18T18:32:19.758Z,101751.56
2022-10-18T18:35:22.671Z,101756.16
2022-10-18T18:38:26.130Z,101756.88
2022-10-18T18:41:29.961Z,101750.72
2022-10-18T18:44:33.932Z,101749.22
2022-10-18T18:47:39.504Z,101751.19
2022-10-18T18:50:49.832Z,101746.19
2022-10-18T18:53:53.590Z,101744.94
2022-10-18T18:56:57.828Z,101741.50
2022-10-18T19:00:00.743Z,101735.06
2022-10-18T19:03:05.130Z,101731.06
2022-10-18T19:06:11.479Z,101721.38
2022-10-18T19:09:20.632Z,101716.63
2022-10-18T19:12:23.627Z,101714.84
2022-10-18T19:15:26.620Z,101718.28
2022-10-18T19:18:30.928Z,101730.34
2022-10-18T19:21:36.803Z,101730.53
2022-10-18T19:24:39.711Z,101740.31
2022-10-18T19:27:42.621Z,101743.69
2022-10-18T19:30:49.966Z,101750.28
2022-10-18T19:33:59.532Z,101751.06
2022-10-18T19:37:02.808Z,101760.72
2022-10-18T19:40:07.477Z,101761.09
2022-10-18T19:43:10.455Z,101771.75
2022-10-18T19:46:13.479Z,101768.28
2022-10-18T19:49:18.104Z,101773.78
2022-10-18T19:52:21.281Z,101780.59
2022-10-18T19:55:25.147Z,101795.59
2022-10-18T19:58:28.696Z,101797.19
2022-10-18T20:01:32.207Z,101801.66
2022-10-18T20:04:38.212Z,101798.41
2022-10-18T20:07:42.521Z,101807.16
2022-10-18T20:10:45.455Z,101813.59
2022-10-18T20:13:48.813Z,101825.03
2022-10-18T20:16:51.751Z,101836.66
2022-10-18T20:19:56.719Z,101844.41
2022-10-18T20:22:59.670Z,101836.00
2022-10-18T20:26:05.641Z,101838.69
2022-10-18T20:29:08.699Z,101844.75
2022-10-18T20:32:11.826Z,101856.88
2022-10-18T20:35:16.216Z,101861.00
2022-10-18T20:38:19.163Z,101861.94
2022-10-18T20:41:25.280Z,101870.69
2022-10-18T20:44:30.713Z,101872.53
2022-10-18T20:47:34.198Z,101889.91
2022-10-18T20:50:43.037Z,101886.88
2022-10-18T20:53:46.082Z,101876.63
2022-10-18T20:56:49.777Z,101880.44
2022-10-18T20:59:52.870Z,101881.13
2022-10-18T21:02:58.895Z,101885.66
2022-10-18T21:06:09.174Z,101877.94
2022-10-18T21:09:14.561Z,101876.50
2022-10-18T21:12:17.569Z,101884.19
2022-10-18T21:15:20.935Z,101875.91
2022-10-18T21:18:26.025Z,101874.75
2022-10-18T21:21:30.260Z,101878.97
2022-10-18T21:24:33.629Z,101878.97
2022-10-18T21:27:36.907Z,101887.69
2022-10-18T21:30:39.818Z,101869.88
2022-10-18T21:33:43.310Z,101866.56
2022-10-18T21:36:49.045Z,101867.50
2022-10-18T21:39:52.117Z,101863.06
2022-10-18T21:42:55.135Z,101858.41
2022-10-18T21:46:00.323Z,101875.00
2022-10-18T21:49:03.514Z,101867.16
2022-10-18T21:52:07.791Z,101868.28
2022-10-18T21:55:10.979Z,101873.50
2022-10-18T21:58:13.915Z,101872.22
2022-10-18T22:01:19.624Z,101875.91
2022-10-18T22:04:25.841Z,101865.56
2022-10-18T22:07:30.433Z,101874.56
2022-10-18T22:10:34.362Z,101874.06
2022-10-18T22:13:37.456Z,101874.91
2022-10-18T22:16:40.392Z,101870.69
2022-10-18T22:19:43.507Z,101868.09
2022-10-18T22:22:47.768Z,101867.34
2022-10-18T22:25:50.941Z,101864.72
2022-10-18T22:28:59.474Z,101853.38
2022-10-18T22:32:02.462Z,101846.97
2022-10-18T22:35:06.605Z,101846.63
2022-10-18T22:38:10.941Z,101842.09
2022-10-18T22:41:14.002Z,101848.84
2022-10-18T22:44:17.135Z,101871.19
2022-10-18T22:47:20.047Z,101867.50
2022-10-18T22:50:23.186Z,101871.72
2022-10-18T22:53:27.495Z,101882.81
2022-10-18T22:56:30.499Z,101892.91
2022-10-18T22:59:33.834Z,101895.28
2022-10-18T23:02:36.984Z,101902.84
2022-10-18T23:05:40.643Z,101893.13
2022-10-18T23:08:44.941Z,101903.47
2022-10-18T23:11:48.061Z,101912.97
2022-10-18T23:14:50.975Z,101917.69
2022-10-18T23:17:54.678Z,101917.69
2022-10-18T23:21:03.053Z,101912.47
2022-10-18T23:24:07.290Z,101920.31
2022-10-18T23:27:10.241Z,101921.03
2022-10-18T23:30:13.847Z,101910.25
2022-10-18T23:33:16.843Z,101904.88
2022-10-18T23:36:20.454Z,101909.91
2022-10-18T23:39:25.111Z,101906.41
2022-10-18T23:42:28.317Z,101904.63
2022-10-18T23:45:31.217Z,101900.13
2022-10-18T23:48:34.970Z,101896.09
2022-10-18T23:51:38.110Z,101899.47
2022-10-18T23:54:42.366Z,101909.00
2022-10-18T23:57:45.315Z,101906.19
